• Join FlightAware (Why Join?)
  • Login
  • US Flag 
10:47AM EDT


 

Airport Tracker/Info


-or-


 

Live Flight TrackerFlight Track Log ✈ JZA948 ✈ 14-May-2012 ✈ CYYZ - CYSJ

Flight Track Log - Related Links

Times and Time Zones

All times are in EDT time to prevent confusion due to time zone crossing. See the JZA948 flight status page for this flight to view local times or setup timezone preferences in your user account.

Time Position Orientation Groundspeed Altitude Reporting Facility
EDT Latitude Longitude Course Direction KTS MPH feet Rate Location/Type
02:35PM 43.6333 -79.6167 180° South 160 184 2,000  Level Toronto Center
02:36PM 43.5833 -79.6167 119° Southeast 180 207 4,000 1,500 Climbing Toronto Center
02:37PM 43.5500 -79.5333 105° East 210 242 5,000 480 Climbing Toronto Center
02:38PM 43.5333 -79.4500 77° East 260 299 5,000 600 Level Toronto Center
02:39PM 43.5500 -79.3500 36° Northeast 260 299 6,300 1,500 Climbing Toronto Center
02:40PM 43.6167 -79.2833 44° Northeast 270 311 8,000 1,560 Climbing Toronto Center
02:41PM 43.6667 -79.2167 44° Northeast 280 322 9,500 1,560 Climbing Toronto Center
02:42PM 43.7167 -79.1500 68° East 290 334 11,200 1,560 Climbing Toronto Center
02:43PM 43.7500 -79.0333 55° Northeast 290 334 12,700 1,500 Climbing Toronto Center
02:44PM 43.8000 -78.9333 61° Northeast 290 334 14,200 1,380 Climbing Toronto Center
02:45PM 43.8333 -78.8500 68° East 290 334 15,500 1,200 Climbing Toronto Center
02:46PM 43.8667 -78.7333 65° Northeast 300 345 16,700 1,140 Climbing Toronto Center
02:47PM 43.9000 -78.6333 59° Northeast 300 345 17,800 960 Climbing Toronto Center
02:48PM 43.9500 -78.5167 74° East 310 357 18,700 900 Climbing Toronto Center
02:49PM 43.9667 -78.4333 59° Northeast 310 357 19,700 960 Climbing Toronto Center
02:50PM 44.0167 -78.3167 55° Northeast 310 357 20,700 960 Climbing Toronto Center
02:51PM 44.0667 -78.2167 68° East 310 357 21,700 900 Climbing Toronto Center
02:52PM 44.1000 -78.1000 36° Northeast 310 357 22,600 840 Climbing Toronto Center
02:52PM 44.1333 -78.0667 68° East 310 357 23,200 720 Climbing Montreal Center
02:53PM 44.1667 -77.9500 68° East 310 357 23,900 600 Climbing Montreal Center
02:54PM 44.2000 -77.8333 68° East 320 368 24,400 480 Climbing Montreal Center
02:55PM 44.2333 -77.7167 62° Northeast 320 368 24,900 300 Climbing Montreal Center
02:56PM 44.2833 -77.5833 79° East 340 391 25,000  Climbing Montreal Center
02:57PM 44.3000 -77.4667 73° East 350 403 25,000  Level Montreal Center
02:58PM 44.3333 -77.3167 62° Northeast 370 426 25,000  Level Montreal Center
02:59PM 44.3833 -77.1833 80° East 370 426 25,000  Level Montreal Center
03:00PM 44.4000 -77.0500 90° East 380 437 25,000  Level Montreal Center
03:01PM 44.4000 -76.8833 81° East 380 437 25,000  Level Montreal Center
03:02PM 44.4167 -76.7333 80° East 390 449 25,000  Level Montreal Center
03:03PM 44.4333 -76.6000 71° East 390 449 25,000  Level Montreal Center
03:04PM 44.4667 -76.4667 67° East 390 449 25,000  Level Montreal Center
03:05PM 44.5167 -76.3000 73° East 390 449 25,000  Level Montreal Center
03:06PM 44.5500 -76.1500 71° East 390 449 25,000  Level Montreal Center
03:07PM 44.5833 -76.0167 73° East 390 449 25,000  Level Montreal Center
03:08PM 44.6167 -75.8667 71° East 390 449 25,000  Level Montreal Center
03:09PM 44.6500 -75.7333 74° East 390 449 25,000  Level Montreal Center
03:10PM 44.6833 -75.5667 68° East 390 449 25,000  Level Montreal Center
03:11PM 44.7167 -75.4500 67° East 390 449 25,000  Level Montreal Center
03:12PM 44.7667 -75.2833 71° East 390 449 25,000  Level Montreal Center
03:13PM 44.8000 -75.1500 73° East 390 449 25,000  Level Montreal Center
03:14PM 44.8333 -75.0000 73° East 400 460 25,000  Level Montreal Center
03:15PM 44.8667 -74.8500 73° East 400 460 25,000  Level Montreal Center
03:16PM 44.9000 -74.7000 65° Northeast 400 460 25,000  Level Montreal Center
03:17PM 44.9500 -74.5500 73° East 400 460 25,000  Level Montreal Center
03:18PM 44.9833 -74.4000 74° East 400 460 25,000  Level Montreal Center
03:19PM 45.0167 -74.2333 90° East 400 460 25,000  Level Montreal Center
03:20PM 45.0167 -74.1000 74° East 400 460 25,000  Level Montreal Center
03:21PM 45.0500 -73.9333 72° East 400 460 25,000  Level Montreal Center
03:22PM 45.0833 -73.7833 74° East 400 460 25,000  Level Montreal Center
03:23PM 45.1167 -73.6167 72° East 400 460 25,000  Level Montreal Center
03:24PM 45.1500 -73.4667 90° East 400 460 25,000  Level Montreal Center
03:25PM 45.1500 -73.3333 74° East 400 460 25,000  Level Montreal Center
03:26PM 45.1833 -73.1667 72° East 400 460 25,000  Level Montreal Center
03:27PM 45.2167 -73.0167 70° East 400 460 25,000  Level Montreal Center
03:28PM 45.2500 -72.8833 83° East 400 460 25,000  Level Montreal Center
03:29PM 45.2667 -72.7000 80° East 400 460 25,000  Level Montreal Center
03:30PM 45.2833 -72.5667 82° East 400 460 25,000  Level Montreal Center
03:31PM 45.3000 -72.4000 82° East 400 460 25,000  Level Montreal Center
03:32PM 45.3167 -72.2333 90° East 400 460 25,000  Level Montreal Center
03:33PM 45.3167 -72.0833 82° East 400 460 25,000  Level Montreal Center
03:34PM 45.3333 -71.9167 90° East 400 460 25,000  Level Montreal Center
03:35PM 45.3333 -71.7667 90° East 400 460 25,000  Level Montreal Center
03:36PM 45.3333 -71.6000 82° East 400 460 25,000  Level Montreal Center
03:37PM 45.3500 -71.4333 90° East 400 460 25,000  Level Montreal Center
03:38PM 45.3500 -71.3000 82° East 400 460 25,000  Level Montreal Center
03:39PM 45.3667 -71.1333 81° East 400 460 25,000  Level Montreal Center
03:40PM 45.3833 -70.9833 88° East 400 460 25,000  Level Montreal Center
03:41PM 45.3847 -70.9242 81° East 401 461 25,000  Level Boston Center
03:42PM 45.4011 -70.7672 83° East 401 461 25,000  Level Boston Center
03:43PM 45.4156 -70.6069 88° East 406 467 25,000  Level Boston Center
03:44PM 45.4192 -70.4503 90° East 406 467 25,000  Level Boston Center
03:45PM 45.4183 -70.2936 89° East 406 467 25,000  Level Boston Center
03:46PM 45.4194 -70.1339 90° East 401 461 25,000  Level Boston Center
03:47PM 45.4200 -69.9592 91° East 401 461 25,000  Level Boston Center
03:48PM 45.4186 -69.7997 90° East 401 461 25,000  Level Boston Center
03:49PM 45.4192 -69.6428 90° East 401 461 25,000  Level Boston Center
03:50PM 45.4192 -69.4803 90° East 401 461 25,000  Level Boston Center
03:51PM 45.4194 -69.3264 90° East 401 461 25,000  Level Boston Center
03:52PM 45.4192 -69.1667 90° East 401 461 25,000  Level Boston Center
03:53PM 45.4189 -69.0069 90° East 401 461 25,000  Level Boston Center
03:54PM 45.4183 -68.8503 92° East 401 461 25,000  Level Boston Center
03:55PM 45.4153 -68.6936 90° East 401 461 25,000  Level Boston Center
03:56PM 45.4144 -68.5369 91° East 401 461 25,000  Level Boston Center
03:57PM 45.4131 -68.3772 92° East 401 461 25,000  Level Boston Center
03:58PM 45.4094 -68.2208 92° East 401 461 25,000 -120 Level Boston Center
03:59PM 45.4064 -68.0761 92° East 401 461 24,800 -900 Descending Boston Center
04:00PM 45.4025 -67.9197 90° East 401 461 23,300 -1,500 Descending Boston Center
04:01PM 45.4022 -67.7600 92° East 396 456 21,800 -1,560 Descending Boston Center
04:02PM 45.3981 -67.6064 97° East 396 456 20,300 -1,500 Descending Boston Center
04:03PM 45.3856 -67.4597 103° East 388 447 18,800 -1,500 Descending Boston Center
04:04PM 45.3628 -67.3197 104° East 376 433 17,400 -1,560 Descending Boston Center
04:05PM 45.3375 -67.1742 103° East 370 426 15,800 -1,560 Descending Boston Center
04:06PM 45.3144 -67.0317 107° East 370 426 14,300 -1,500 Descending Boston Center
04:07PM 45.2667 -66.8167 101° East 350 403 12,200 -1,440 Descending Moncton Center
04:08PM 45.2500 -66.7000 101° East 330 380 10,800 -1,260 Descending Moncton Center
04:09PM 45.2333 -66.5833 112° Southeast 310 357 9,700 -1,200 Descending Moncton Center
04:10PM 45.2000 -66.4667 103° East 290 334 8,500 -1,200 Descending Moncton Center
04:11PM 45.1833 -66.3667 103° East 290 334 7,400 -1,140 Descending Moncton Center
04:12PM 45.1667 -66.2667 90° East 260 299 6,300 -1,020 Descending Moncton Center
04:13PM 45.1667 -66.1833 103° East 240 276 5,400 -900 Descending Moncton Center
04:14PM 45.1500 -66.0833 90° East 220 253 4,500 -960 Descending Moncton Center
04:15PM 45.1500 -66.0167 35° Northeast 220 253 3,500 -1,080 Descending Moncton Center
04:16PM 45.2000 -65.9667 35° Northeast 200 230 2,400 -1,020 Descending Moncton Center
04:17PM 45.2333 -65.9333 19° North 170 196 1,500 -840 Descending Moncton Center
04:18PM 45.2667 -65.9167 47° Northeast 150 173 800 -420 Descending Moncton Center
04:19PM 45.3000 -65.8667 47° Northeast 140 161 700 -120 Descending Moncton Center